Time;durP1;ratioP1;P1;durP2;ratioP2;P2;SDS_P1;SDS_P2;PMS_P1;PMS_P2;Temp;Humidity;BMP_temperature;BMP_pressure;BME280_temperature;BME280_humidity;BME280_pressure;Samples;Min_cycle;Max_cycle;Signal;HPM_P1;HPM_P2
2023/06/01 00:00:32;;;;;;;2.90;2.47;;;20.00;67.40;;;;;;4993952;28;20853;-76
2023/06/01 00:03:00;;;;;;;3.50;2.50;;;20.00;67.80;;;;;;4991455;28;20470;-76
2023/06/01 00:05:27;;;;;;;3.83;3.10;;;20.00;68.10;;;;;;4994062;28;20474;-77
2023/06/01 00:07:55;;;;;;;2.60;2.30;;;20.00;68.40;;;;;;4969673;28;20479;-76
2023/06/01 00:10:22;;;;;;;4.60;2.20;;;19.90;68.50;;;;;;4973629;28;20474;-76
2023/06/01 00:12:49;;;;;;;2.60;2.40;;;19.90;69.10;;;;;;4974695;28;20533;-75
2023/06/01 00:15:17;;;;;;;3.60;2.60;;;19.80;69.10;;;;;;4973307;28;20474;-76
2023/06/01 00:17:44;;;;;;;2.53;2.30;;;19.90;69.40;;;;;;4974108;28;20818;-75
2023/06/01 00:20:11;;;;;;;2.87;2.67;;;19.80;69.70;;;;;;4972356;28;20498;-75
2023/06/01 00:22:39;;;;;;;6.93;3.03;;;19.80;70.00;;;;;;4974134;28;20471;-75
2023/06/01 00:25:08;;;;;;;4.80;2.50;;;19.70;70.00;;;;;;4972706;28;20583;-74
2023/06/01 00:27:35;;;;;;;2.30;2.17;;;19.70;70.40;;;;;;4973581;28;20517;-75
2023/06/01 00:30:03;;;;;;;3.40;2.53;;;19.70;70.60;;;;;;4973537;28;20502;-75
2023/06/01 00:32:30;;;;;;;4.20;2.13;;;19.70;70.70;;;;;;4974133;28;21051;-75
2023/06/01 00:34:57;;;;;;;2.23;2.03;;;19.70;71.00;;;;;;4972876;28;20553;-76
2023/06/01 00:37:24;;;;;;;2.20;2.00;;;19.70;71.20;;;;;;4974293;28;20483;-75
2023/06/01 00:39:50;;;;;;;3.20;2.50;;;19.60;71.30;;;;;;4974298;28;20534;-75
2023/06/01 00:42:23;;;;;;;2.97;2.17;;;19.60;71.50;;;;;;4972764;28;20470;-75
2023/06/01 00:44:50;;;;;;;4.30;2.70;;;19.60;71.90;;;;;;4974211;28;20476;-76
2023/06/01 00:47:18;;;;;;;2.93;2.43;;;19.50;72.10;;;;;;4974556;28;20462;-76
2023/06/01 00:49:45;;;;;;;3.10;2.80;;;19.50;72.60;;;;;;4965205;28;20547;-76
2023/06/01 00:52:13;;;;;;;4.37;2.67;;;19.50;72.80;;;;;;4963881;28;20518;-76
2023/06/01 00:54:42;;;;;;;2.30;2.10;;;19.50;73.20;;;;;;4972857;28;20479;-75
2023/06/01 00:57:09;;;;;;;2.20;2.00;;;19.40;73.40;;;;;;4972503;28;20471;-76
2023/06/01 00:59:40;;;;;;;2.73;2.33;;;19.40;73.70;;;;;;4973734;28;20470;-75
2023/06/01 01:02:18;;;;;;;4.00;1.97;;;19.40;74.00;;;;;;4972865;28;20466;-75
2023/06/01 01:04:45;;;;;;;2.50;2.23;;;19.30;74.50;;;;;;4974106;28;20488;-75
2023/06/01 01:07:21;;;;;;;2.10;1.90;;;19.30;74.90;;;;;;4971966;28;20478;-74
2023/06/01 01:10:00;;;;;;;2.40;2.00;;;19.30;75.10;;;;;;4974043;28;20546;-76
2023/06/01 01:12:33;;;;;;;2.50;2.30;;;19.20;75.20;;;;;;4973203;28;20545;-76
2023/06/01 01:15:08;;;;;;;3.30;2.57;;;19.20;75.50;;;;;;4973758;28;20490;-75
2023/06/01 01:17:42;;;;;;;2.80;2.13;;;19.10;75.70;;;;;;4973659;28;20458;-76
2023/06/01 01:20:15;;;;;;;2.47;2.27;;;19.10;75.90;;;;;;4973416;28;20474;-76
2023/06/01 01:23:04;;;;;;;2.10;1.90;;;19.10;76.20;;;;;;4973420;28;20641;-76
2023/06/01 01:25:53;;;;;;;3.70;2.63;;;19.00;76.40;;;;;;4964803;28;20471;-76
2023/06/01 01:28:39;;;;;;;2.60;2.40;;;19.00;76.70;;;;;;4973287;28;20471;-76
2023/06/01 01:31:09;;;;;;;3.67;2.50;;;19.00;77.10;;;;;;4972335;28;20475;-76
2023/06/01 01:33:37;;;;;;;3.00;2.20;;;18.90;77.40;;;;;;4973109;28;20479;-76
2023/06/01 01:36:08;;;;;;;4.27;2.33;;;18.90;77.60;;;;;;4973456;28;20557;-76
2023/06/01 01:38:36;;;;;;;2.77;2.50;;;18.80;77.80;;;;;;4972365;28;20478;-76
2023/06/01 01:41:03;;;;;;;3.00;2.40;;;18.80;78.20;;;;;;4973658;28;20482;-74
2023/06/01 01:43:31;;;;;;;6.30;2.17;;;18.80;78.50;;;;;;4972464;28;20570;-76
2023/06/01 01:46:09;;;;;;;3.73;2.70;;;18.70;78.60;;;;;;4973421;28;20529;-75
2023/06/01 01:48:40;;;;;;;2.80;2.60;;;18.70;79.90;;;;;;4973065;28;20502;-75
2023/06/01 01:51:27;;;;;;;2.30;1.90;;;18.70;79.30;;;;;;4973010;28;20809;-75
2023/06/01 01:53:57;;;;;;;4.23;2.53;;;18.60;79.50;;;;;;4973149;28;20509;-77
2023/06/01 01:56:25;;;;;;;3.10;2.80;;;18.60;79.90;;;;;;4973769;28;20534;-75
2023/06/01 01:58:56;;;;;;;5.93;2.67;;;18.50;80.10;;;;;;4962636;28;20611;-75
2023/06/01 02:01:25;;;;;;;3.73;2.20;;;18.50;80.60;;;;;;4972746;28;20471;-75
2023/06/01 02:04:02;;;;;;;4.37;3.43;;;18.40;80.70;;;;;;4973634;28;20470;-76
2023/06/01 02:06:30;;;;;;;2.60;2.37;;;18.40;81.00;;;;;;4973674;28;21003;-75
2023/06/01 02:08:57;;;;;;;4.37;3.10;;;18.30;81.50;;;;;;4975992;28;20521;-75
2023/06/01 02:11:24;;;;;;;3.40;2.53;;;18.30;82.20;;;;;;4976740;28;20474;-75
2023/06/01 02:13:52;;;;;;;3.10;2.80;;;18.30;82.50;;;;;;4976157;28;20529;-75
2023/06/01 02:16:21;;;;;;;3.90;2.57;;;18.20;82.80;;;;;;4977011;28;20502;-76
2023/06/01 02:18:50;;;;;;;3.00;2.70;;;18.20;83.00;;;;;;4976319;28;20470;-75
2023/06/01 02:21:17;;;;;;;2.67;2.47;;;18.10;83.30;;;;;;4976182;28;20485;-76
2023/06/01 02:23:46;;;;;;;3.87;3.10;;;18.10;83.60;;;;;;4975708;28;20471;-75
2023/06/01 02:26:13;;;;;;;5.30;2.40;;;18.00;83.80;;;;;;4974323;28;20474;-75
2023/06/01 02:28:42;;;;;;;3.10;2.80;;;18.00;84.20;;;;;;4975690;28;20533;-76
2023/06/01 02:31:10;;;;;;;2.10;1.90;;;17.90;84.70;;;;;;4966882;28;20475;-76
2023/06/01 02:33:39;;;;;;;3.80;2.97;;;17.90;84.80;;;;;;4976144;28;20486;-76
2023/06/01 02:36:08;;;;;;;4.20;3.00;;;17.90;85.20;;;;;;4975607;28;20466;-76
2023/06/01 02:38:35;;;;;;;3.90;3.33;;;17.80;85.50;;;;;;4976578;28;20471;-75
2023/06/01 02:41:03;;;;;;;3.70;3.43;;;17.80;86.00;;;;;;4975707;28;20479;-75
2023/06/01 02:43:38;;;;;;;3.90;3.50;;;17.80;86.30;;;;;;4976225;28;20475;-74
2023/06/01 02:46:05;;;;;;;5.37;3.20;;;17.70;86.80;;;;;;4975313;28;20462;-75
2023/06/01 02:48:34;;;;;;;4.47;3.30;;;17.70;87.10;;;;;;4976261;28;20841;-75
2023/06/01 02:51:01;;;;;;;3.00;2.80;;;17.60;87.40;;;;;;4975131;28;20558;-75
2023/06/01 02:53:31;;;;;;;5.53;3.53;;;17.60;87.90;;;;;;4976091;28;20533;-76
2023/06/01 02:56:01;;;;;;;5.30;3.40;;;17.50;88.50;;;;;;4974882;28;20479;-75
2023/06/01 02:58:29;;;;;;;3.97;3.13;;;17.50;89.10;;;;;;4976140;28;20478;-76
2023/06/01 03:00:57;;;;;;;5.10;3.97;;;17.50;89.50;;;;;;4975179;28;20467;-76
2023/06/01 03:03:24;;;;;;;4.77;3.70;;;17.40;90.00;;;;;;4975767;28;20466;-75
2023/06/01 03:05:52;;;;;;;4.87;3.30;;;17.40;90.20;;;;;;4974897;28;20471;-76
2023/06/01 03:08:19;;;;;;;3.93;3.60;;;17.30;90.40;;;;;;4975540;28;20462;-76
2023/06/01 03:10:47;;;;;;;5.80;3.30;;;17.30;90.60;;;;;;4975387;28;20475;-76
2023/06/01 03:13:17;;;;;;;9.00;4.10;;;17.20;90.90;;;;;;4975703;28;20472;-76
2023/06/01 03:15:44;;;;;;;4.40;4.00;;;17.20;91.00;;;;;;4975480;28;20479;-75
2023/06/01 03:18:11;;;;;;;4.10;3.70;;;17.10;91.30;;;;;;4974307;28;20953;-75
2023/06/01 03:20:38;;;;;;;3.47;3.17;;;17.10;91.50;;;;;;4975665;28;20467;-76
2023/06/01 03:23:05;;;;;;;3.73;3.40;;;17.10;91.70;;;;;;4974375;28;20502;-75
2023/06/01 03:25:33;;;;;;;8.77;4.10;;;17.00;92.00;;;;;;4975596;28;20820;-77
2023/06/01 03:28:01;;;;;;;9.07;5.10;;;17.00;92.30;;;;;;4974793;28;20479;-75
2023/06/01 03:30:28;;;;;;;6.33;3.47;;;17.00;92.50;;;;;;4974091;28;20483;-75
2023/06/01 03:32:55;;;;;;;6.47;4.13;;;16.90;92.80;;;;;;4974626;28;20537;-75
2023/06/01 03:35:28;;;;;;;5.30;4.13;;;16.90;93.10;;;;;;4975251;28;20482;-75
2023/06/01 03:37:58;;;;;;;11.30;4.50;;;16.80;93.30;;;;;;4974360;28;20467;-75
2023/06/01 03:40:26;;;;;;;7.40;4.83;;;16.80;93.60;;;;;;4975149;28;20477;-75
2023/06/01 03:42:53;;;;;;;4.53;3.97;;;16.80;93.90;;;;;;4974748;28;20495;-76
2023/06/01 03:45:22;;;;;;;9.00;5.10;;;16.80;94.20;;;;;;4974771;28;20862;-76
2023/06/01 03:47:48;;;;;;;7.60;4.73;;;16.70;94.50;;;;;;4974837;28;20502;-75
2023/06/01 03:50:15;;;;;;;12.57;8.30;;;16.70;94.80;;;;;;4974605;28;20570;-75
2023/06/01 03:52:42;;;;;;;11.60;5.73;;;16.60;94.90;;;;;;4976136;28;20530;-76
2023/06/01 03:55:12;;;;;;;11.03;5.97;;;16.60;95.30;;;;;;4974713;28;20558;-75
2023/06/01 03:57:40;;;;;;;11.77;5.67;;;16.60;95.50;;;;;;4975241;28;20479;-75
2023/06/01 04:00:18;;;;;;;10.50;5.10;;;16.60;95.80;;;;;;4974112;28;20482;-76
2023/06/01 04:02:52;;;;;;;7.03;6.33;;;16.50;96.10;;;;;;4974795;28;20505;-76
2023/06/01 04:05:22;;;;;;;7.27;6.53;;;16.50;96.30;;;;;;4974360;28;20483;-76
2023/06/01 04:07:51;;;;;;;9.33;5.87;;;16.50;96.50;;;;;;4974669;28;20826;-75
2023/06/01 04:10:45;;;;;;;7.47;5.50;;;16.40;97.00;;;;;;4973863;28;20493;-76
2023/06/01 04:13:12;;;;;;;6.47;5.80;;;16.40;97.20;;;;;;4954825;28;20467;-76
2023/06/01 04:15:39;;;;;;;8.63;6.87;;;16.40;97.50;;;;;;4974369;28;20873;-78
2023/06/01 04:18:08;;;;;;;7.20;6.27;;;16.40;97.80;;;;;;4974353;28;20482;-76
2023/06/01 04:20:38;;;;;;;8.47;7.60;;;16.40;98.00;;;;;;4974419;28;20517;-75
2023/06/01 04:23:05;;;;;;;10.33;6.90;;;16.40;98.20;;;;;;4972929;28;20503;-75
2023/06/01 04:25:38;;;;;;;10.17;6.67;;;16.40;98.70;;;;;;4974170;28;20506;-75
2023/06/01 04:28:05;;;;;;;8.53;6.30;;;16.40;98.60;;;;;;4973457;28;20537;-75
2023/06/01 04:30:32;;;;;;;13.93;8.53;;;16.40;98.70;;;;;;4973429;28;20479;-74
2023/06/01 04:32:59;;;;;;;12.43;7.10;;;16.40;99.00;;;;;;4973423;28;20475;-76
2023/06/01 04:35:32;;;;;;;9.40;6.80;;;16.30;99.20;;;;;;4972879;28;20952;-75
2023/06/01 04:37:59;;;;;;;7.30;6.23;;;16.40;99.40;;;;;;4974206;28;20880;-76
2023/06/01 04:40:26;;;;;;;9.37;7.47;;;16.40;99.60;;;;;;4973792;28;20539;-76
2023/06/01 04:42:55;;;;;;;14.03;9.33;;;16.40;99.80;;;;;;4973968;28;20470;-75
2023/06/01 04:45:23;;;;;;;9.30;7.17;;;16.30;99.90;;;;;;4972656;28;20474;-75
2023/06/01 04:47:50;;;;;;;9.23;7.47;;;16.30;99.90;;;;;;4973860;28;20478;-76
2023/06/01 04:50:17;;;;;;;10.80;8.40;;;16.20;99.90;;;;;;4972868;28;20968;-76
2023/06/01 04:52:47;;;;;;;12.17;8.80;;;16.20;99.90;;;;;;4974057;28;20550;-76
2023/06/01 04:55:15;;;;;;;8.37;7.53;;;16.20;99.90;;;;;;4962720;28;20474;-76
2023/06/01 04:57:44;;;;;;;9.83;8.77;;;16.10;99.90;;;;;;4973979;28;20463;-76
2023/06/01 05:00:13;;;;;;;11.20;8.60;;;16.10;99.90;;;;;;4972939;28;20486;-76
2023/06/01 05:02:42;;;;;;;9.70;8.73;;;16.10;99.90;;;;;;4973539;28;20505;-76
2023/06/01 05:05:09;;;;;;;9.43;8.47;;;16.00;99.90;;;;;;4972621;28;20471;-76
2023/06/01 05:07:38;;;;;;;9.47;7.33;;;16.00;99.90;;;;;;4965338;28;20810;-76
2023/06/01 05:10:09;;;;;;;9.40;8.27;;;16.00;99.90;;;;;;4973881;28;20496;-75
2023/06/01 05:12:37;;;;;;;15.77;8.60;;;15.90;99.90;;;;;;4973749;28;20475;-75
2023/06/01 05:15:06;;;;;;;11.60;8.83;;;16.00;99.90;;;;;;4973734;28;20479;-76
2023/06/01 05:17:34;;;;;;;10.47;7.27;;;15.90;99.90;;;;;;4973542;28;20465;-76
2023/06/01 05:20:01;;;;;;;13.67;9.77;;;15.90;99.90;;;;;;4973624;28;20479;-76
2023/06/01 05:22:28;;;;;;;10.43;8.60;;;15.90;99.90;;;;;;4972120;28;20479;-76
2023/06/01 05:24:55;;;;;;;11.20;8.70;;;15.90;99.90;;;;;;4973605;28;20479;-76
2023/06/01 05:27:24;;;;;;;10.30;7.20;;;15.90;99.90;;;;;;4972899;28;20482;-76
2023/06/01 05:29:53;;;;;;;9.03;6.97;;;15.90;99.90;;;;;;4973527;28;20983;-75
2023/06/01 05:32:20;;;;;;;8.33;7.50;;;15.90;99.90;;;;;;4963488;28;20486;-75
2023/06/01 05:34:50;;;;;;;11.70;7.40;;;15.80;99.90;;;;;;4973401;28;20474;-75
2023/06/01 05:37:17;;;;;;;11.40;6.60;;;15.80;99.90;;;;;;4963662;28;20989;-76
2023/06/01 05:39:48;;;;;;;11.80;6.17;;;15.80;99.90;;;;;;4973626;28;20470;-76
2023/06/01 05:42:15;;;;;;;7.60;5.97;;;15.80;99.90;;;;;;4974516;28;20576;-76
2023/06/01 05:44:43;;;;;;;11.10;7.10;;;15.80;99.90;;;;;;4976662;28;20466;-76
2023/06/01 05:47:12;;;;;;;12.17;7.00;;;15.80;99.90;;;;;;4977653;28;20474;-77
2023/06/01 05:49:39;;;;;;;12.60;8.00;;;15.90;99.90;;;;;;4977053;28;20533;-76
2023/06/01 05:52:07;;;;;;;8.87;5.90;;;15.90;99.90;;;;;;4976694;28;20558;-76
2023/06/01 05:54:43;;;;;;;6.43;5.83;;;15.90;99.90;;;;;;4976958;28;20540;-75
2023/06/01 05:57:10;;;;;;;8.27;6.57;;;16.00;99.90;;;;;;4977701;28;20470;-75
2023/06/01 05:59:38;;;;;;;10.10;5.70;;;16.00;99.90;;;;;;4977095;28;20513;-75
2023/06/01 06:02:06;;;;;;;9.80;6.70;;;16.00;99.90;;;;;;4966833;28;20463;-75
2023/06/01 06:04:33;;;;;;;7.83;5.63;;;16.00;99.90;;;;;;4975902;28;20551;-75
2023/06/01 06:07:00;;;;;;;8.50;6.20;;;16.00;99.90;;;;;;4975910;28;20474;-75
2023/06/01 06:09:27;;;;;;;9.40;6.43;;;16.00;99.90;;;;;;4976281;28;20537;-76
2023/06/01 06:11:54;;;;;;;8.70;6.27;;;16.00;99.90;;;;;;4976514;28;20479;-76
2023/06/01 06:14:21;;;;;;;6.30;5.70;;;16.00;99.90;;;;;;4976617;28;20466;-75
2023/06/01 06:16:48;;;;;;;10.17;6.50;;;16.10;99.90;;;;;;4975565;28;20540;-75
2023/06/01 06:19:17;;;;;;;6.27;5.37;;;16.00;99.90;;;;;;4967314;28;20557;-75
2023/06/01 06:21:44;;;;;;;9.70;5.70;;;16.10;99.90;;;;;;4975861;28;20467;-75
2023/06/01 06:24:11;;;;;;;7.73;7.03;;;16.20;99.90;;;;;;4976234;28;20474;-75
2023/06/01 06:26:38;;;;;;;8.97;5.17;;;16.20;99.90;;;;;;4975674;28;20471;-76
2023/06/01 06:29:05;;;;;;;11.50;5.20;;;16.30;99.90;;;;;;4976635;28;20474;-76
2023/06/01 06:31:32;;;;;;;6.40;5.37;;;16.40;99.90;;;;;;4975786;28;20479;-75
2023/06/01 06:34:00;;;;;;;7.27;5.30;;;16.40;99.90;;;;;;4976332;28;20968;-75
2023/06/01 06:36:28;;;;;;;11.93;5.80;;;16.50;99.60;;;;;;4976443;28;20479;-76
2023/06/01 06:38:55;;;;;;;7.07;5.80;;;16.60;99.40;;;;;;4976159;28;20475;-75
2023/06/01 06:41:23;;;;;;;7.87;4.87;;;16.60;99.00;;;;;;4976428;28;20470;-75
2023/06/01 06:43:49;;;;;;;9.80;6.30;;;16.70;98.40;;;;;;4975617;28;20498;-76
2023/06/01 06:46:16;;;;;;;8.87;6.33;;;16.70;98.40;;;;;;4976235;28;20475;-77
2023/06/01 06:48:43;;;;;;;8.20;6.67;;;16.70;98.00;;;;;;4975801;28;20471;-76
2023/06/01 06:51:10;;;;;;;9.23;6.57;;;16.70;98.00;;;;;;4976004;28;20479;-75
2023/06/01 06:53:39;;;;;;;10.37;5.77;;;16.70;98.10;;;;;;4974466;28;20875;-76
2023/06/01 06:56:06;;;;;;;11.63;6.97;;;16.80;98.10;;;;;;4975666;28;20542;-75
2023/06/01 06:58:33;;;;;;;7.93;7.20;;;16.80;98.00;;;;;;4975454;28;20924;-76
2023/06/01 07:01:04;;;;;;;6.13;5.03;;;16.90;98.00;;;;;;4976253;28;20462;-77
2023/06/01 07:03:32;;;;;;;11.90;5.17;;;16.90;97.80;;;;;;4975860;28;20570;-76
2023/06/01 07:05:59;;;;;;;12.60;5.83;;;16.90;97.80;;;;;;4975402;28;20467;-76
2023/06/01 07:08:26;;;;;;;5.63;5.07;;;16.90;97.80;;;;;;4975716;28;20964;-76
2023/06/01 07:10:55;;;;;;;8.77;6.47;;;16.90;97.70;;;;;;4975384;28;20562;-76
2023/06/01 07:13:22;;;;;;;8.63;6.27;;;17.00;97.80;;;;;;4975610;28;20529;-76
2023/06/01 07:15:50;;;;;;;10.70;5.47;;;17.00;97.70;;;;;;4975205;28;20506;-74
2023/06/01 07:18:17;;;;;;;11.63;6.13;;;17.00;97.70;;;;;;4975934;28;20475;-75
2023/06/01 07:20:44;;;;;;;13.90;5.50;;;17.10;97.60;;;;;;4975441;28;20467;-75
2023/06/01 07:23:12;;;;;;;6.67;5.67;;;17.10;97.20;;;;;;4974747;28;20474;-75
2023/06/01 07:25:48;;;;;;;6.40;5.40;;;17.10;97.50;;;;;;4978355;28;20478;-75
2023/06/01 07:28:16;;;;;;;7.80;5.97;;;17.20;96.90;;;;;;4977951;28;20466;-75
2023/06/01 07:30:43;;;;;;;10.20;5.70;;;17.20;96.70;;;;;;4975601;28;20474;-75
2023/06/01 07:33:10;;;;;;;5.93;5.33;;;17.20;96.70;;;;;;4975212;28;21028;-75
2023/06/01 07:35:37;;;;;;;7.07;5.60;;;17.30;96.60;;;;;;4974610;28;20482;-76
2023/06/01 07:38:07;;;;;;;8.60;7.70;;;17.30;96.40;;;;;;4975728;28;20834;-75
2023/06/01 07:40:34;;;;;;;14.13;9.83;;;17.40;96.20;;;;;;4975329;28;20474;-75
2023/06/01 07:43:01;;;;;;;12.57;6.87;;;17.40;96.10;;;;;;4973986;28;20459;-75
2023/06/01 07:45:30;;;;;;;8.93;7.57;;;17.40;95.90;;;;;;4975468;28;20980;-76
2023/06/01 07:47:57;;;;;;;8.43;7.17;;;17.50;95.70;;;;;;4974288;28;20474;-75
2023/06/01 07:50:28;;;;;;;9.77;5.93;;;17.60;95.60;;;;;;4975454;28;20474;-77
2023/06/01 07:52:57;;;;;;;7.87;6.30;;;17.70;95.30;;;;;;4974603;28;20522;-77
2023/06/01 07:55:24;;;;;;;8.73;5.70;;;17.80;95.00;;;;;;4975403;28;20545;-77
2023/06/01 07:57:53;;;;;;;5.90;5.03;;;18.00;94.60;;;;;;4974531;28;20529;-76
2023/06/01 08:00:23;;;;;;;8.03;4.87;;;18.20;94.30;;;;;;4975010;28;20466;-75
2023/06/01 08:02:52;;;;;;;12.73;7.40;;;18.40;94.00;;;;;;4974178;28;20471;-76
2023/06/01 08:05:23;;;;;;;7.30;4.80;;;18.60;93.50;;;;;;4974350;28;20470;-75
2023/06/01 08:07:50;;;;;;;8.53;4.20;;;18.80;93.20;;;;;;4974117;28;20906;-75
2023/06/01 08:10:18;;;;;;;8.30;6.00;;;19.00;92.80;;;;;;4974814;28;20740;-75
2023/06/01 08:12:47;;;;;;;6.83;5.13;;;19.10;92.40;;;;;;4974058;28;20471;-75
2023/06/01 08:15:15;;;;;;;6.53;5.07;;;19.30;91.90;;;;;;4974493;28;20471;-75
2023/06/01 08:17:43;;;;;;;8.13;5.27;;;19.50;91.60;;;;;;4973955;28;20501;-75
2023/06/01 08:20:12;;;;;;;7.90;4.73;;;19.60;91.20;;;;;;4974978;28;20505;-74
2023/06/01 08:22:52;;;;;;;8.43;5.57;;;19.80;90.90;;;;;;4974884;28;20555;-75
2023/06/01 08:25:19;;;;;;;8.90;5.60;;;19.90;90.60;;;;;;4974940;28;20605;-75
2023/06/01 08:27:47;;;;;;;6.70;5.30;;;20.00;90.40;;;;;;4972438;28;20822;-75
2023/06/01 08:30:14;;;;;;;6.77;5.10;;;20.10;90.10;;;;;;4973728;28;20494;-75
2023/06/01 08:32:41;;;;;;;6.20;4.20;;;20.20;89.70;;;;;;4973589;28;20490;-75
2023/06/01 08:35:09;;;;;;;9.20;5.20;;;20.40;89.10;;;;;;4971862;28;20530;-76
2023/06/01 08:37:38;;;;;;;6.80;5.10;;;20.50;88.60;;;;;;4974313;28;20483;-76
2023/06/01 08:40:08;;;;;;;5.30;4.67;;;20.50;87.80;;;;;;4974144;28;21004;-76
2023/06/01 08:42:44;;;;;;;6.57;5.00;;;20.60;87.00;;;;;;4973145;28;20479;-76
2023/06/01 08:45:12;;;;;;;4.73;3.97;;;20.60;86.70;;;;;;4973856;28;20508;-76
2023/06/01 08:47:40;;;;;;;5.50;4.20;;;20.70;86.70;;;;;;4973717;28;20486;-76
2023/06/01 08:50:11;;;;;;;6.30;5.70;;;20.80;86.60;;;;;;4974102;28;20470;-76
2023/06/01 08:52:39;;;;;;;7.80;6.93;;;20.80;86.10;;;;;;4973481;28;21021;-76
2023/06/01 08:55:07;;;;;;;5.00;4.60;;;20.80;85.60;;;;;;4973575;28;20965;-76
2023/06/01 08:57:35;;;;;;;4.83;4.43;;;20.80;85.20;;;;;;4973569;28;20474;-77
2023/06/01 09:00:04;;;;;;;6.33;4.63;;;20.80;84.40;;;;;;4973845;28;20471;-76
2023/06/01 09:02:31;;;;;;;11.43;6.27;;;20.80;84.50;;;;;;4972361;28;20961;-76
2023/06/01 09:04:58;;;;;;;6.30;4.77;;;20.80;84.50;;;;;;4973839;28;20485;-76
2023/06/01 09:07:27;;;;;;;7.70;5.37;;;20.80;84.40;;;;;;4973679;28;20475;-76
2023/06/01 09:09:56;;;;;;;9.63;5.00;;;20.80;84.40;;;;;;4973700;28;20482;-77
2023/06/01 09:12:28;;;;;;;5.90;4.33;;;20.80;84.50;;;;;;4973548;28;20475;-76
2023/06/01 09:15:12;;;;;;;5.20;4.03;;;20.80;84.30;;;;;;4973446;28;20478;-75
2023/06/01 09:17:40;;;;;;;7.77;5.07;;;20.80;84.30;;;;;;4972786;28;20470;-76
2023/06/01 09:20:31;;;;;;;7.27;5.13;;;20.70;84.60;;;;;;4977735;28;20474;-75
2023/06/01 09:23:02;;;;;;;5.87;4.10;;;20.70;84.90;;;;;;4965763;28;20984;-76
2023/06/01 09:25:32;;;;;;;4.23;3.80;;;20.70;84.80;;;;;;4977592;28;20533;-76
2023/06/01 09:28:01;;;;;;;6.83;4.10;;;20.70;84.90;;;;;;4976463;28;20498;-76
2023/06/01 09:30:40;;;;;;;5.10;4.30;;;20.70;84.70;;;;;;4977506;28;20478;-76
2023/06/01 09:33:15;;;;;;;8.10;4.17;;;20.70;85.00;;;;;;4977512;28;20490;-76
2023/06/01 09:35:52;;;;;;;4.80;4.40;;;20.70;84.90;;;;;;4976829;28;20505;-75
2023/06/01 09:38:23;;;;;;;6.30;5.10;;;20.70;85.00;;;;;;4976852;28;20454;-76
2023/06/01 09:40:59;;;;;;;6.63;5.67;;;20.70;85.20;;;;;;4976878;28;20482;-76
2023/06/01 09:43:27;;;;;;;5.00;4.47;;;20.70;85.40;;;;;;4975897;28;20501;-76
2023/06/01 09:46:13;;;;;;;9.03;4.73;;;20.70;85.30;;;;;;5209665;23;21031;-74
2023/06/01 09:48:42;;;;;;;7.70;5.03;;;20.80;85.10;;;;;;5036188;28;20535;-75
2023/06/01 09:51:22;;;;;;;6.60;4.70;;;20.80;85.20;;;;;;5035832;28;20479;-74
2023/06/01 09:53:49;;;;;;;5.27;3.97;;;20.90;84.70;;;;;;5034809;28;20460;-76
2023/06/01 09:56:18;;;;;;;7.30;4.77;;;20.80;84.60;;;;;;5050521;28;20533;-75
2023/06/01 09:58:45;;;;;;;4.67;4.27;;;20.90;84.70;;;;;;5056010;28;20451;-75
2023/06/01 10:01:15;;;;;;;5.60;4.67;;;20.90;84.80;;;;;;5045374;28;20467;-75
2023/06/01 10:03:44;;;;;;;5.10;4.60;;;20.90;84.60;;;;;;5055784;28;20477;-75
2023/06/01 10:06:19;;;;;;;6.37;5.77;;;20.90;84.60;;;;;;5056341;28;20467;-74
2023/06/01 10:08:49;;;;;;;11.30;5.33;;;20.90;84.30;;;;;;5056117;28;20484;-76
2023/06/01 10:11:18;;;;;;;6.63;5.83;;;20.90;83.90;;;;;;5052503;28;20897;-76
2023/06/01 10:13:45;;;;;;;6.77;6.07;;;20.90;83.60;;;;;;5054414;28;20470;-75
2023/06/01 10:16:13;;;;;;;7.90;6.20;;;20.90;83.30;;;;;;5054943;28;20474;-76
2023/06/01 10:18:44;;;;;;;9.00;6.23;;;20.90;83.00;;;;;;5054659;28;20953;-75
2023/06/01 10:21:12;;;;;;;7.67;6.90;;;21.00;83.40;;;;;;5055730;28;20470;-75
2023/06/01 10:23:42;;;;;;;7.63;6.97;;;21.00;83.30;;;;;;5055120;28;20559;-75
2023/06/01 10:26:14;;;;;;;8.30;6.30;;;20.90;83.40;;;;;;5055287;28;20475;-75
2023/06/01 10:28:53;;;;;;;8.20;6.63;;;20.90;83.50;;;;;;5054724;28;20475;-75
2023/06/01 10:31:37;;;;;;;8.90;7.10;;;20.90;83.60;;;;;;5055230;28;20510;-75
2023/06/01 10:34:05;;;;;;;8.73;7.70;;;20.90;83.30;;;;;;5054206;28;20860;-73
2023/06/01 10:37:09;;;;;;;8.83;7.93;;;21.00;83.50;;;;;;5044764;28;20486;-75
2023/06/01 10:39:36;;;;;;;9.67;7.90;;;21.00;83.30;;;;;;5054699;28;20463;-75
2023/06/01 10:42:38;;;;;;;10.07;8.73;;;21.10;83.60;;;;;;5054999;28;20467;-75
2023/06/01 10:45:08;;;;;;;7.40;6.80;;;21.10;82.60;;;;;;5054957;28;20501;-75
2023/06/01 10:47:53;;;;;;;11.07;7.90;;;21.20;82.00;;;;;;5044509;28;21022;-74
2023/06/01 10:50:20;;;;;;;9.10;8.17;;;21.20;82.10;;;;;;5053612;28;20538;-74
2023/06/01 10:52:47;;;;;;;9.23;8.10;;;21.20;82.30;;;;;;5055307;28;20495;-74
2023/06/01 10:55:34;;;;;;;9.27;8.27;;;21.20;81.20;;;;;;5054207;28;20525;-74
2023/06/01 10:58:23;;;;;;;10.37;8.70;;;21.20;81.30;;;;;;5054317;28;20577;-74
2023/06/01 11:00:54;;;;;;;12.70;10.87;;;21.30;81.20;;;;;;5054780;28;20486;-76
2023/06/01 11:03:45;;;;;;;8.80;7.80;;;21.30;81.20;;;;;;5054763;28;20463;-76
2023/06/01 11:06:26;;;;;;;8.17;7.47;;;21.30;80.50;;;;;;5054647;28;20467;-77
2023/06/01 11:08:59;;;;;;;8.63;7.80;;;21.40;80.20;;;;;;5054361;28;20550;-77
2023/06/01 11:11:59;;;;;;;11.13;8.00;;;21.40;80.50;;;;;;5053768;28;20466;-77
2023/06/01 11:14:29;;;;;;;8.50;7.40;;;21.40;80.00;;;;;;5054900;28;20583;-76
2023/06/01 11:17:30;;;;;;;8.90;7.93;;;21.50;79.80;;;;;;5053581;28;20487;-76
2023/06/01 11:20:05;;;;;;;8.60;7.70;;;21.50;79.80;;;;;;5054154;28;20464;-75
2023/06/01 11:22:37;;;;;;;8.90;7.90;;;21.60;79.90;;;;;;5054695;28;20463;-74
2023/06/01 11:25:08;;;;;;;8.80;7.90;;;21.70;79.70;;;;;;5052297;28;20493;-76
2023/06/01 11:27:35;;;;;;;9.80;8.40;;;21.70;79.50;;;;;;5054537;28;20537;-75
2023/06/01 11:30:03;;;;;;;7.10;6.50;;;21.80;79.10;;;;;;5053267;28;20467;-75
2023/06/01 11:32:36;;;;;;;9.37;8.57;;;21.80;78.40;;;;;;5054144;28;20532;-75
2023/06/01 11:35:17;;;;;;;8.93;7.13;;;21.80;77.60;;;;;;5053960;28;20460;-75
2023/06/01 11:37:47;;;;;;;8.20;7.37;;;21.90;78.10;;;;;;5053797;28;20494;-76
2023/06/01 11:40:21;;;;;;;7.93;7.10;;;21.90;78.40;;;;;;5053872;28;20467;-76
2023/06/01 11:42:48;;;;;;;7.63;6.63;;;21.90;78.50;;;;;;5052856;28;20494;-75
2023/06/01 11:45:17;;;;;;;7.37;6.67;;;22.00;78.50;;;;;;5054173;28;20896;-76
2023/06/01 11:47:46;;;;;;;12.00;9.13;;;22.00;78.40;;;;;;5053136;28;20468;-76
2023/06/01 11:50:26;;;;;;;8.20;6.40;;;21.90;78.00;;;;;;5054223;28;20490;-77
2023/06/01 11:52:55;;;;;;;8.10;7.40;;;22.00;78.30;;;;;;5051278;28;20478;-76
2023/06/01 11:55:22;;;;;;;8.43;7.63;;;21.90;78.60;;;;;;5052131;28;20471;-75
2023/06/01 11:57:49;;;;;;;8.60;7.77;;;21.90;78.60;;;;;;5051852;28;20566;-76
2023/06/01 12:00:19;;;;;;;12.00;7.80;;;22.00;78.00;;;;;;5053221;28;20533;-76
2023/06/01 12:02:48;;;;;;;8.70;7.80;;;22.00;78.00;;;;;;5053321;28;20474;-76
2023/06/01 12:05:17;;;;;;;8.77;7.97;;;22.00;77.90;;;;;;5053537;28;20471;-76
2023/06/01 12:07:45;;;;;;;6.67;6.03;;;22.00;77.90;;;;;;5053912;28;20547;-77
2023/06/01 12:10:14;;;;;;;9.63;6.93;;;22.10;77.80;;;;;;5053955;28;20539;-77
2023/06/01 12:12:42;;;;;;;8.27;7.30;;;22.10;76.40;;;;;;5054499;28;20501;-76
2023/06/01 12:15:11;;;;;;;7.70;6.90;;;22.10;76.20;;;;;;5044685;28;20487;-77
2023/06/01 12:17:49;;;;;;;7.70;7.00;;;22.10;76.30;;;;;;5053352;28;20477;-76
2023/06/01 12:20:28;;;;;;;6.87;6.17;;;22.10;75.70;;;;;;5053950;28;20459;-77
2023/06/01 12:22:56;;;;;;;7.50;6.57;;;22.10;76.70;;;;;;5055312;28;20499;-77
2023/06/01 12:25:23;;;;;;;7.10;6.50;;;22.10;76.00;;;;;;5055523;28;20542;-77
2023/06/01 12:28:04;;;;;;;7.70;6.30;;;22.20;76.20;;;;;;5055684;28;20533;-77
2023/06/01 12:30:32;;;;;;;10.00;7.80;;;22.20;76.20;;;;;;5055692;28;20471;-76
2023/06/01 12:33:01;;;;;;;9.23;8.30;;;22.30;76.00;;;;;;5054181;28;20479;-76
2023/06/01 12:35:28;;;;;;;9.53;7.50;;;22.30;75.80;;;;;;5053716;28;20499;-76
2023/06/01 12:38:08;;;;;;;10.27;7.53;;;22.30;75.90;;;;;;5054328;28;20487;-77
2023/06/01 12:40:39;;;;;;;8.27;7.43;;;22.40;75.70;;;;;;5054669;28;20497;-75
2023/06/01 12:43:18;;;;;;;8.87;7.87;;;22.40;75.70;;;;;;5054679;28;20487;-75
2023/06/01 12:45:46;;;;;;;9.63;8.43;;;22.40;74.90;;;;;;5054757;28;20501;-77
2023/06/01 12:48:33;;;;;;;8.33;7.40;;;22.30;74.90;;;;;;5056206;28;20478;-76
2023/06/01 12:51:02;;;;;;;8.40;7.10;;;22.30;75.10;;;;;;5046152;28;20963;-76
2023/06/01 12:53:32;;;;;;;8.63;7.53;;;22.30;75.20;;;;;;5037353;28;20480;-75
2023/06/01 12:55:59;;;;;;;8.53;6.90;;;22.30;75.60;;;;;;5051703;28;20475;-76
2023/06/01 12:58:28;;;;;;;11.13;9.50;;;22.30;76.00;;;;;;5050219;28;20492;-76
2023/06/01 13:00:55;;;;;;;11.60;9.00;;;22.30;76.00;;;;;;5033416;28;20468;-76